createdAt,value
2023-02-07T00:01:34.174Z,-4.24
2023-02-07T00:04:02.372Z,-4.26
2023-02-07T00:06:34.044Z,-4.34
2023-02-07T00:09:04.563Z,-4.32
2023-02-07T00:11:32.302Z,-4.34
2023-02-07T00:14:00.256Z,-4.37
2023-02-07T00:16:28.468Z,-4.46
2023-02-07T00:18:58.340Z,-4.51
2023-02-07T00:21:28.541Z,-4.56
2023-02-07T00:23:56.351Z,-4.64
2023-02-07T00:26:26.722Z,-4.68
2023-02-07T00:28:55.638Z,-4.71
2023-02-07T00:31:35.112Z,-4.73
2023-02-07T00:34:06.070Z,-4.80
2023-02-07T00:36:36.256Z,-4.90
2023-02-07T00:39:08.482Z,-4.97
2023-02-07T00:41:35.716Z,-5.10
2023-02-07T00:44:04.042Z,-5.22
2023-02-07T00:46:31.932Z,-5.14
2023-02-07T00:48:59.766Z,-5.09
2023-02-07T00:51:27.808Z,-5.04
2023-02-07T00:53:56.353Z,-5.07
2023-02-07T00:56:26.550Z,-5.11
2023-02-07T00:58:54.330Z,-5.10
2023-02-07T01:01:22.587Z,-5.10
2023-02-07T01:03:51.000Z,-5.13
2023-02-07T01:06:18.490Z,-5.20
2023-02-07T01:08:46.161Z,-5.20
2023-02-07T01:11:17.050Z,-5.24
2023-02-07T01:13:45.370Z,-5.31
2023-02-07T01:16:28.583Z,-5.34
2023-02-07T01:18:56.791Z,-5.46
2023-02-07T01:21:26.754Z,-5.46
2023-02-07T01:23:54.869Z,-5.60
2023-02-07T01:26:25.012Z,-5.68
2023-02-07T01:28:55.077Z,-5.69
2023-02-07T01:31:23.857Z,-5.67
2023-02-07T01:34:00.292Z,-5.67
2023-02-07T01:36:30.058Z,-5.77
2023-02-07T01:38:57.880Z,-5.88
2023-02-07T01:41:27.114Z,-5.85
2023-02-07T01:44:07.193Z,-5.86
2023-02-07T01:46:37.098Z,-5.82
2023-02-07T01:49:13.258Z,-5.87
2023-02-07T01:51:48.900Z,-5.90
2023-02-07T01:54:18.718Z,-5.94
2023-02-07T01:56:57.214Z,-5.99
2023-02-07T01:59:26.912Z,-6.08
2023-02-07T02:02:01.384Z,-6.23
2023-02-07T02:04:29.293Z,-6.22
2023-02-07T02:06:57.983Z,-6.19
2023-02-07T02:09:27.495Z,-6.21
2023-02-07T02:12:34.277Z,-6.24
2023-02-07T02:15:30.886Z,-6.32
2023-02-07T02:18:42.811Z,-6.32
2023-02-07T02:21:18.859Z,-6.34
2023-02-07T02:24:14.841Z,-6.32
2023-02-07T02:26:54.260Z,-6.39
2023-02-07T02:30:03.270Z,-6.38
2023-02-07T02:32:51.484Z,-6.40
2023-02-07T02:35:52.154Z,-6.39
2023-02-07T02:38:32.453Z,-6.33
2023-02-07T02:41:11.830Z,-6.40
2023-02-07T02:43:56.399Z,-6.53
2023-02-07T02:46:36.625Z,-6.54
2023-02-07T02:49:08.887Z,-6.64
2023-02-07T02:51:36.296Z,-6.70
2023-02-07T02:54:03.620Z,-6.75
2023-02-07T02:56:58.649Z,-6.75
2023-02-07T02:59:44.666Z,-6.74
2023-02-07T03:03:15.396Z,-6.74
2023-02-07T03:06:16.373Z,-6.87
2023-02-07T03:08:47.936Z,-6.91
2023-02-07T03:11:22.264Z,-6.95
2023-02-07T03:14:20.469Z,-7.03
2023-02-07T03:17:01.860Z,-7.10
2023-02-07T03:19:48.681Z,-7.11
2023-02-07T03:22:22.165Z,-7.14
2023-02-07T03:24:56.041Z,-7.17
2023-02-07T03:27:25.922Z,-7.20
2023-02-07T03:29:56.849Z,-7.14
2023-02-07T03:32:38.526Z,-7.11
2023-02-07T03:35:25.437Z,-7.12
2023-02-07T03:38:01.557Z,-7.25
2023-02-07T03:40:44.442Z,-7.22
2023-02-07T03:43:35.166Z,-7.27
2023-02-07T03:46:02.447Z,-7.31
2023-02-07T03:48:30.113Z,-7.31
2023-02-07T03:50:57.548Z,-7.30
2023-02-07T03:53:25.115Z,-7.38
2023-02-07T03:55:52.299Z,-7.29
2023-02-07T03:58:20.181Z,-7.30
2023-02-07T04:00:47.430Z,-7.30
2023-02-07T04:03:14.813Z,-7.21
2023-02-07T04:05:43.883Z,-7.18
2023-02-07T04:08:11.161Z,-7.23
2023-02-07T04:10:38.605Z,-7.27
2023-02-07T04:13:06.178Z,-7.32
2023-02-07T04:15:33.392Z,-7.38
2023-02-07T04:18:00.613Z,-7.46
2023-02-07T04:20:28.157Z,-7.56
2023-02-07T04:22:55.362Z,-7.55
2023-02-07T04:25:22.772Z,-7.55
2023-02-07T04:27:50.013Z,-7.56
2023-02-07T04:30:17.431Z,-7.54
2023-02-07T04:32:44.552Z,-7.67
2023-02-07T04:35:11.955Z,-7.77
2023-02-07T04:37:39.466Z,-7.80
2023-02-07T04:40:07.932Z,-7.85
2023-02-07T04:42:35.082Z,-7.81
2023-02-07T04:45:02.360Z,-7.84
2023-02-07T04:47:29.528Z,-7.86
2023-02-07T04:49:56.949Z,-7.86
2023-02-07T04:52:24.187Z,-7.83
2023-02-07T04:54:51.426Z,-7.93
2023-02-07T04:57:19.164Z,-7.98
2023-02-07T04:59:46.430Z,-7.97
2023-02-07T05:02:13.855Z,-7.93
2023-02-07T05:04:41.491Z,-7.95
2023-02-07T05:07:09.075Z,-7.96
2023-02-07T05:09:36.528Z,-7.99
2023-02-07T05:12:04.049Z,-8.00
2023-02-07T05:14:31.316Z,-8.00
2023-02-07T05:16:58.861Z,-8.01
2023-02-07T05:19:26.416Z,-7.98
2023-02-07T05:21:53.626Z,-8.00
2023-02-07T05:24:20.959Z,-8.05
2023-02-07T05:26:48.184Z,-8.08
2023-02-07T05:29:15.437Z,-8.11
2023-02-07T05:31:42.896Z,-8.07
2023-02-07T05:34:10.285Z,-8.06
2023-02-07T05:36:37.489Z,-8.04
2023-02-07T05:39:05.019Z,-8.05
2023-02-07T05:41:32.300Z,-8.13
2023-02-07T05:43:59.472Z,-8.25
2023-02-07T05:46:28.324Z,-8.34
2023-02-07T05:48:55.573Z,-8.52
2023-02-07T05:51:22.809Z,-8.43
2023-02-07T05:53:51.392Z,-8.53
2023-02-07T05:56:22.733Z,-8.51
2023-02-07T05:58:50.187Z,-8.53
2023-02-07T06:01:17.440Z,-8.55
2023-02-07T06:03:44.727Z,-8.56
2023-02-07T06:06:12.087Z,-8.51
2023-02-07T06:08:39.344Z,-8.52
2023-02-07T06:11:06.881Z,-8.49
2023-02-07T06:13:34.222Z,-8.44
2023-02-07T06:16:01.418Z,-8.42
2023-02-07T06:18:28.789Z,-8.37
2023-02-07T06:20:56.113Z,-8.31
2023-02-07T06:23:23.342Z,-8.31
2023-02-07T06:25:50.628Z,-8.30
2023-02-07T06:28:18.043Z,-8.25
2023-02-07T06:30:45.386Z,-8.22
2023-02-07T06:33:12.963Z,-8.18
2023-02-07T06:35:42.952Z,-8.11
2023-02-07T06:38:18.072Z,-8.08
2023-02-07T06:40:45.807Z,-8.24
2023-02-07T06:43:13.361Z,-8.32
2023-02-07T06:45:41.331Z,-8.37
2023-02-07T06:48:10.967Z,-8.35
2023-02-07T06:50:38.655Z,-8.49
2023-02-07T06:53:06.054Z,-8.53
2023-02-07T06:55:39.567Z,-8.65
2023-02-07T06:58:07.969Z,-8.73
2023-02-07T07:00:35.727Z,-8.62
2023-02-07T07:03:04.491Z,-8.59
2023-02-07T07:05:32.985Z,-8.57
2023-02-07T07:08:00.292Z,-8.53
2023-02-07T07:10:27.985Z,-8.58
2023-02-07T07:12:55.198Z,-8.60
2023-02-07T07:16:22.293Z,-8.62
2023-02-07T07:19:04.512Z,-8.64
2023-02-07T07:21:32.143Z,-8.58
2023-02-07T07:23:59.790Z,-8.51
2023-02-07T07:26:36.675Z,-8.47
2023-02-07T07:29:14.142Z,-8.44
2023-02-07T07:31:41.335Z,-8.42
2023-02-07T07:34:08.564Z,-8.40
2023-02-07T07:36:35.793Z,-8.28
2023-02-07T07:39:03.668Z,-8.26
2023-02-07T07:41:31.039Z,-8.08
2023-02-07T07:43:58.331Z,-7.94
2023-02-07T07:46:25.852Z,-7.88
2023-02-07T07:48:53.144Z,-7.87
2023-02-07T07:51:20.384Z,-7.86
2023-02-07T07:53:54.799Z,-7.78
2023-02-07T07:56:22.057Z,-7.64
2023-02-07T07:58:49.274Z,-7.55
2023-02-07T08:01:16.572Z,-7.49
2023-02-07T08:03:43.844Z,-7.42
2023-02-07T08:06:11.325Z,-7.41
2023-02-07T08:08:38.714Z,-7.30
2023-02-07T08:11:09.404Z,-7.21
2023-02-07T08:13:38.397Z,-7.10
2023-02-07T08:16:07.664Z,-6.94
2023-02-07T08:18:35.666Z,-6.84
2023-02-07T08:21:03.648Z,-6.70
2023-02-07T08:23:31.230Z,-6.63
2023-02-07T08:25:58.416Z,-6.53
2023-02-07T08:28:27.346Z,-6.42
2023-02-07T08:30:55.044Z,-6.28
2023-02-07T08:33:22.944Z,-6.25
2023-02-07T08:35:50.964Z,-6.15
2023-02-07T08:38:18.242Z,-6.04
2023-02-07T08:40:45.420Z,-5.91
2023-02-07T08:43:14.296Z,-5.84
2023-02-07T08:45:47.174Z,-5.69
2023-02-07T08:48:15.269Z,-5.56
2023-02-07T08:50:42.675Z,-5.43
2023-02-07T08:53:10.273Z,-5.30
2023-02-07T08:55:40.998Z,-5.19
2023-02-07T08:58:08.473Z,-5.09
2023-02-07T09:00:36.540Z,-5.07
2023-02-07T09:03:05.143Z,-5.02
2023-02-07T09:05:32.621Z,-5.01
2023-02-07T09:08:01.644Z,-4.99
2023-02-07T09:10:29.000Z,-4.90
2023-02-07T09:12:56.332Z,-4.86
2023-02-07T09:15:23.618Z,-4.75
2023-02-07T09:17:50.826Z,-4.69
2023-02-07T09:20:18.427Z,-4.63
2023-02-07T09:22:45.690Z,-4.51
2023-02-07T09:25:13.149Z,-4.42
2023-02-07T09:27:40.473Z,-4.33
2023-02-07T09:30:09.922Z,-4.23
2023-02-07T09:32:37.137Z,-4.15
2023-02-07T09:35:04.510Z,-4.12
2023-02-07T09:37:37.395Z,-4.05
2023-02-07T09:40:19.001Z,-3.94
2023-02-07T09:43:26.661Z,-3.87
2023-02-07T09:46:03.033Z,-3.80
2023-02-07T09:48:51.183Z,-3.77
2023-02-07T09:51:24.252Z,-3.73
2023-02-07T09:54:00.257Z,-3.66
2023-02-07T09:56:30.102Z,-3.59
2023-02-07T09:59:27.384Z,-3.52
2023-02-07T10:02:01.702Z,-3.40
2023-02-07T10:04:39.615Z,-3.29
2023-02-07T10:07:11.496Z,-3.17
2023-02-07T10:09:42.728Z,-3.05
2023-02-07T10:12:56.149Z,-2.94
2023-02-07T10:15:57.093Z,-2.81
2023-02-07T10:18:52.435Z,-2.77
2023-02-07T10:21:41.276Z,-2.75
2023-02-07T10:24:33.401Z,-2.69
2023-02-07T10:27:11.560Z,-2.68
2023-02-07T10:30:24.465Z,-2.57
2023-02-07T10:32:52.405Z,-2.53
2023-02-07T10:35:35.037Z,-2.48
2023-02-07T10:38:04.585Z,-2.40
2023-02-07T10:40:52.987Z,-2.35
2023-02-07T10:43:33.246Z,-2.36
2023-02-07T10:46:08.929Z,-2.34
2023-02-07T10:48:37.970Z,-2.30
2023-02-07T10:51:19.408Z,-2.23
2023-02-07T10:54:01.052Z,-2.15
2023-02-07T10:56:31.676Z,-2.13
2023-02-07T10:59:00.075Z,-2.05
2023-02-07T11:01:31.830Z,-2.02
2023-02-07T11:03:59.693Z,-1.96
2023-02-07T11:06:34.915Z,-1.84
2023-02-07T11:09:24.719Z,-1.68
2023-02-07T11:11:54.384Z,-1.59
2023-02-07T11:14:25.861Z,-1.48
2023-02-07T11:17:00.165Z,-1.35
2023-02-07T11:19:31.969Z,-1.26
2023-02-07T11:22:23.636Z,-1.17
2023-02-07T11:24:59.523Z,-1.10
2023-02-07T11:27:27.631Z,-1.06
2023-02-07T11:30:07.094Z,-1.03
2023-02-07T11:32:35.000Z,-1.04
2023-02-07T11:35:08.613Z,-0.96
2023-02-07T11:37:40.510Z,-0.96
2023-02-07T11:40:27.030Z,-0.95
2023-02-07T11:47:05.269Z,-0.88
2023-02-07T11:49:54.391Z,-0.79
2023-02-07T11:52:22.478Z,-0.70
2023-02-07T11:55:06.206Z,-0.24
2023-02-07T11:57:34.729Z,0.77
2023-02-07T12:00:04.793Z,2.29
2023-02-07T12:02:33.849Z,3.92
2023-02-07T12:05:25.795Z,5.68
2023-02-07T12:08:06.497Z,7.14
2023-02-07T12:10:39.849Z,8.39
2023-02-07T12:13:31.352Z,9.54
2023-02-07T12:16:15.411Z,10.59
2023-02-07T12:18:53.647Z,11.51
2023-02-07T12:21:32.402Z,12.10
2023-02-07T12:24:16.983Z,12.65
2023-02-07T12:26:54.438Z,12.93
2023-02-07T12:29:50.093Z,13.15
2023-02-07T12:32:42.529Z,13.43
2023-02-07T12:39:44.435Z,13.20
2023-02-07T12:42:39.507Z,13.18
2023-02-07T12:45:14.790Z,13.07
2023-02-07T12:48:19.045Z,12.98
2023-02-07T12:51:07.736Z,12.70
2023-02-07T12:54:06.011Z,12.25
2023-02-07T12:57:18.882Z,11.65
2023-02-07T13:00:08.781Z,11.29
2023-02-07T13:02:54.054Z,11.07
2023-02-07T13:06:00.561Z,10.87
2023-02-07T13:12:49.987Z,10.32
2023-02-07T13:15:55.120Z,9.46
2023-02-07T13:18:42.106Z,8.09
2023-02-07T13:21:29.095Z,7.04
2023-02-07T13:24:06.324Z,6.10
2023-02-07T13:26:35.451Z,5.24
2023-02-07T13:29:17.326Z,4.59
2023-02-07T13:31:58.079Z,4.00
2023-02-07T13:34:32.095Z,3.49
2023-02-07T13:37:11.454Z,3.09
2023-02-07T13:44:26.789Z,2.10
2023-02-07T13:51:38.632Z,1.45
2023-02-07T13:55:05.333Z,1.25
2023-02-07T14:01:32.168Z,0.82
2023-02-07T14:04:10.538Z,0.70
2023-02-07T14:10:51.235Z,0.50
2023-02-07T14:13:27.895Z,0.45
2023-02-07T14:16:09.375Z,0.44
2023-02-07T14:18:50.151Z,0.28
2023-02-07T14:21:23.113Z,0.25
2023-02-07T14:24:14.345Z,0.19
2023-02-07T14:35:17.418Z,-0.17
2023-02-07T14:38:09.138Z,-0.25
2023-02-07T14:41:01.816Z,-0.31
2023-02-07T14:43:56.772Z,-0.34
2023-02-07T14:46:42.631Z,-0.39
2023-02-07T14:49:20.926Z,-0.45
2023-02-07T14:51:54.796Z,-0.50
2023-02-07T14:55:01.182Z,-0.56
2023-02-07T15:02:30.441Z,-0.71
2023-02-07T15:04:59.463Z,-0.73
2023-02-07T15:07:26.676Z,-0.74
2023-02-07T15:14:03.122Z,-0.88
2023-02-07T15:16:35.823Z,-0.86
2023-02-07T15:19:23.080Z,-1.00
2023-02-07T15:21:51.353Z,-0.95
2023-02-07T15:24:51.204Z,-0.94
2023-02-07T15:27:26.818Z,-0.97
2023-02-07T15:30:06.646Z,-1.02
2023-02-07T15:32:43.643Z,-1.11
2023-02-07T15:35:28.818Z,-1.12
2023-02-07T15:38:23.130Z,-1.07
2023-02-07T15:40:52.911Z,-1.14
2023-02-07T15:43:35.414Z,-1.20
2023-02-07T15:46:06.359Z,-1.21
2023-02-07T15:48:49.832Z,-1.19
2023-02-07T15:51:25.056Z,-1.23
2023-02-07T15:53:57.810Z,-1.30
2023-02-07T15:56:28.992Z,-1.34
2023-02-07T15:59:10.458Z,-1.38
2023-02-07T16:01:38.020Z,-1.45
2023-02-07T16:04:08.861Z,-1.50
2023-02-07T16:10:42.485Z,-1.70
2023-02-07T16:13:23.121Z,-1.75
2023-02-07T16:16:26.700Z,-1.77
2023-02-07T16:19:19.890Z,-1.83
2023-02-07T16:22:02.014Z,-1.88
2023-02-07T16:24:31.649Z,-1.98
2023-02-07T16:27:00.860Z,-2.01
2023-02-07T16:29:29.067Z,-2.08
2023-02-07T16:31:56.726Z,-2.11
2023-02-07T16:34:26.640Z,-2.23
2023-02-07T16:36:56.164Z,-2.24
2023-02-07T16:39:24.032Z,-2.29
2023-02-07T16:41:59.308Z,-2.33
2023-02-07T16:44:28.268Z,-2.37
2023-02-07T16:46:55.666Z,-2.35
2023-02-07T16:49:25.392Z,-2.37
2023-02-07T16:51:53.768Z,-2.42
2023-02-07T16:54:22.031Z,-2.47
2023-02-07T16:56:54.413Z,-2.47
2023-02-07T16:59:23.254Z,-2.53
2023-02-07T17:01:52.997Z,-2.66
2023-02-07T17:04:21.904Z,-2.69
2023-02-07T17:06:50.423Z,-2.70
2023-02-07T17:09:24.932Z,-2.71
2023-02-07T17:11:56.687Z,-2.77
2023-02-07T17:14:23.941Z,-2.81
2023-02-07T17:16:51.297Z,-2.84
2023-02-07T17:19:23.130Z,-2.89
2023-02-07T17:21:52.125Z,-2.92
2023-02-07T17:24:20.157Z,-2.97
2023-02-07T17:26:54.286Z,-3.03
2023-02-07T17:29:22.525Z,-3.04
2023-02-07T17:31:50.390Z,-3.07
2023-02-07T17:34:18.047Z,-3.05
2023-02-07T17:36:50.999Z,-3.07
2023-02-07T17:39:19.652Z,-3.11
2023-02-07T17:41:46.932Z,-3.13
2023-02-07T17:44:14.454Z,-3.16
2023-02-07T17:46:47.390Z,-3.26
2023-02-07T17:49:16.995Z,-3.26
2023-02-07T17:51:44.304Z,-3.34
2023-02-07T17:58:18.738Z,-3.54
2023-02-07T18:00:45.975Z,-3.56
2023-02-07T18:03:21.866Z,-3.59
2023-02-07T18:05:49.112Z,-3.62
2023-02-07T18:12:16.696Z,-3.80
2023-02-07T18:14:44.108Z,-3.85
2023-02-07T18:17:11.897Z,-3.91
2023-02-07T18:19:41.394Z,-3.92
2023-02-07T18:22:11.327Z,-3.94
2023-02-07T18:24:38.545Z,-3.93
2023-02-07T18:27:06.116Z,-3.95
2023-02-07T18:29:33.392Z,-3.99
2023-02-07T18:32:00.759Z,-3.93
2023-02-07T18:34:28.336Z,-3.97
2023-02-07T18:36:55.800Z,-4.01
2023-02-07T18:39:23.366Z,-4.03
2023-02-07T18:41:50.594Z,-4.03
2023-02-07T18:44:17.835Z,-4.14
2023-02-07T18:46:45.210Z,-4.19
2023-02-07T18:49:13.713Z,-4.28
2023-02-07T18:51:41.072Z,-4.34
2023-02-07T18:54:08.568Z,-4.42
2023-02-07T18:56:38.887Z,-4.58
2023-02-07T18:59:06.122Z,-4.65
2023-02-07T19:01:39.721Z,-4.74
2023-02-07T19:04:09.726Z,-4.80
2023-02-07T19:06:37.101Z,-4.82
2023-02-07T19:09:04.347Z,-4.89
2023-02-07T19:11:31.513Z,-4.91
2023-02-07T19:13:58.771Z,-4.89
2023-02-07T19:16:27.071Z,-4.96
2023-02-07T19:18:59.278Z,-5.09
2023-02-07T19:21:26.809Z,-5.09
2023-02-07T19:23:56.071Z,-5.11
2023-02-07T19:26:24.263Z,-5.09
2023-02-07T19:28:53.077Z,-5.17
2023-02-07T19:31:21.685Z,-5.19
2023-02-07T19:33:50.645Z,-5.17
2023-02-07T19:36:19.777Z,-5.21
2023-02-07T19:38:47.414Z,-5.25
2023-02-07T19:41:15.133Z,-5.28
2023-02-07T19:43:42.695Z,-5.36
2023-02-07T19:46:10.327Z,-5.38
2023-02-07T19:48:38.527Z,-5.35
2023-02-07T19:51:13.982Z,-5.35
2023-02-07T19:53:44.117Z,-5.35
2023-02-07T19:56:12.304Z,-5.38
2023-02-07T19:58:42.310Z,-5.35
2023-02-07T20:01:10.345Z,-5.37
2023-02-07T20:03:38.902Z,-5.40
2023-02-07T20:06:12.091Z,-5.44
2023-02-07T20:08:43.180Z,-5.46
2023-02-07T20:11:16.032Z,-5.50
2023-02-07T20:13:48.173Z,-5.49
2023-02-07T20:16:20.908Z,-5.47
2023-02-07T20:18:49.364Z,-5.45
2023-02-07T20:21:21.612Z,-5.40
2023-02-07T20:23:55.226Z,-5.41
2023-02-07T20:26:35.134Z,-5.41
2023-02-07T20:29:08.953Z,-5.47
2023-02-07T20:31:37.793Z,-5.57
2023-02-07T20:34:08.543Z,-5.55
2023-02-07T20:36:37.683Z,-5.60
2023-02-07T20:39:04.929Z,-5.66
2023-02-07T20:41:32.310Z,-5.74
2023-02-07T20:44:08.827Z,-5.80
2023-02-07T20:46:37.624Z,-5.83
2023-02-07T20:49:13.944Z,-5.86
2023-02-07T20:51:41.377Z,-5.93
2023-02-07T20:54:10.917Z,-5.98
2023-02-07T20:56:38.908Z,-6.00
2023-02-07T20:59:07.657Z,-6.14
2023-02-07T21:01:36.140Z,-6.15
2023-02-07T21:04:05.785Z,-6.23
2023-02-07T21:06:35.262Z,-6.20
2023-02-07T21:09:06.425Z,-6.17
2023-02-07T21:11:37.610Z,-6.24
2023-02-07T21:14:08.738Z,-6.23
2023-02-07T21:16:36.316Z,-6.29
2023-02-07T21:19:03.832Z,-6.30
2023-02-07T21:21:31.388Z,-6.34
2023-02-07T21:23:59.651Z,-6.40
2023-02-07T21:26:28.777Z,-6.46
2023-02-07T21:29:02.443Z,-6.47
2023-02-07T21:31:33.073Z,-6.48
2023-02-07T21:34:03.558Z,-6.48
2023-02-07T21:36:35.180Z,-6.38
2023-02-07T21:39:02.509Z,-6.39
2023-02-07T21:41:30.580Z,-6.43
2023-02-07T21:43:59.382Z,-6.43
2023-02-07T21:46:31.128Z,-6.47
2023-02-07T21:49:02.650Z,-6.60
2023-02-07T21:51:33.889Z,-6.62
2023-02-07T21:54:03.744Z,-6.62
2023-02-07T21:56:35.087Z,-6.65
2023-02-07T21:59:06.897Z,-6.69
2023-02-07T22:01:34.620Z,-6.72
2023-02-07T22:04:03.935Z,-6.82
2023-02-07T22:06:33.433Z,-6.89
2023-02-07T22:09:02.456Z,-6.94
2023-02-07T22:11:34.399Z,-6.96
2023-02-07T22:14:01.966Z,-7.02
2023-02-07T22:16:32.191Z,-7.04
2023-02-07T22:19:02.177Z,-7.11
2023-02-07T22:21:33.562Z,-7.15
2023-02-07T22:24:02.433Z,-7.15
2023-02-07T22:26:31.064Z,-7.17
2023-02-07T22:28:58.675Z,-7.20
2023-02-07T22:31:30.234Z,-7.23
2023-02-07T22:34:03.949Z,-7.23
2023-02-07T22:36:34.626Z,-7.26
2023-02-07T22:39:04.234Z,-7.29
2023-02-07T22:41:32.893Z,-7.28
2023-02-07T22:44:00.522Z,-7.29
2023-02-07T22:46:29.223Z,-7.26
2023-02-07T22:48:57.062Z,-7.27
2023-02-07T22:51:26.084Z,-7.30
2023-02-07T22:53:58.787Z,-7.37
2023-02-07T22:56:27.662Z,-7.38
2023-02-07T22:58:56.197Z,-7.49
2023-02-07T23:01:28.335Z,-7.52
2023-02-07T23:03:56.992Z,-7.55
2023-02-07T23:06:26.539Z,-7.53
2023-02-07T23:08:54.690Z,-7.51
2023-02-07T23:11:23.769Z,-7.54
2023-02-07T23:13:53.193Z,-7.55
2023-02-07T23:16:28.092Z,-7.60
2023-02-07T23:19:01.636Z,-7.65
2023-02-07T23:21:30.073Z,-7.70
2023-02-07T23:23:58.013Z,-7.76
2023-02-07T23:26:27.011Z,-7.73
2023-02-07T23:28:54.858Z,-7.84
2023-02-07T23:31:24.489Z,-7.86
2023-02-07T23:33:53.366Z,-7.84
2023-02-07T23:36:21.485Z,-7.83
2023-02-07T23:38:50.284Z,-7.83
2023-02-07T23:41:18.118Z,-7.93
2023-02-07T23:43:45.931Z,-7.97
2023-02-07T23:46:15.928Z,-8.04
2023-02-07T23:48:43.764Z,-8.11
2023-02-07T23:51:12.529Z,-8.14
2023-02-07T23:53:40.146Z,-8.12
2023-02-07T23:56:08.300Z,-8.04
2023-02-07T23:58:36.735Z,-8.03
